createdAt,value
2023-03-27T00:00:44.649Z,1.90
2023-03-27T00:01:44.841Z,1.80
2023-03-27T00:02:45.056Z,1.80
2023-03-27T00:03:45.251Z,1.60
2023-03-27T00:04:45.412Z,1.60
2023-03-27T00:05:45.566Z,1.80
2023-03-27T00:06:45.730Z,1.70
2023-03-27T00:07:45.878Z,1.50
2023-03-27T00:08:46.025Z,1.80
2023-03-27T00:09:53.186Z,1.60
2023-03-27T00:10:46.415Z,1.80
2023-03-27T00:11:46.581Z,1.50
2023-03-27T00:12:46.723Z,1.60
2023-03-27T00:13:49.268Z,1.70
2023-03-27T00:14:47.049Z,1.70
2023-03-27T00:15:47.303Z,1.60
2023-03-27T00:16:47.519Z,1.50
2023-03-27T00:17:47.637Z,1.60
2023-03-27T00:18:47.752Z,1.50
2023-03-27T00:19:47.895Z,1.40
2023-03-27T00:20:48.058Z,1.50
2023-03-27T00:21:48.225Z,1.80
2023-03-27T00:22:48.389Z,1.40
2023-03-27T00:23:48.555Z,1.90
2023-03-27T00:24:48.702Z,1.80
2023-03-27T00:25:48.881Z,1.60
2023-03-27T00:26:49.063Z,1.70
2023-03-27T00:27:49.225Z,1.80
2023-03-27T00:28:49.368Z,1.80
2023-03-27T00:29:49.525Z,1.40
2023-03-27T00:30:49.732Z,1.50
2023-03-27T00:31:49.872Z,1.40
2023-03-27T00:32:50.033Z,1.50
2023-03-27T00:33:50.192Z,2.10
2023-03-27T00:34:50.330Z,1.40
2023-03-27T00:35:50.640Z,1.70
2023-03-27T00:36:50.797Z,1.90
2023-03-27T00:37:50.948Z,1.60
2023-03-27T00:38:51.104Z,1.70
2023-03-27T00:39:51.261Z,1.70
2023-03-27T00:40:51.421Z,1.70
2023-03-27T00:41:51.617Z,1.60
2023-03-27T00:42:51.751Z,1.60
2023-03-27T00:43:51.920Z,1.60
2023-03-27T00:44:52.085Z,1.60
2023-03-27T00:45:52.242Z,1.50
2023-03-27T00:46:52.385Z,1.70
2023-03-27T00:47:52.584Z,1.80
2023-03-27T00:48:52.740Z,1.70
2023-03-27T00:49:52.893Z,1.60
2023-03-27T00:50:53.056Z,1.50
2023-03-27T00:51:53.223Z,1.50
2023-03-27T00:52:53.401Z,1.50
2023-03-27T00:53:53.578Z,1.90
2023-03-27T00:54:53.724Z,1.60
2023-03-27T00:55:53.992Z,1.50
2023-03-27T00:56:54.206Z,1.80
2023-03-27T00:57:54.374Z,1.80
2023-03-27T00:58:54.535Z,1.70
2023-03-27T00:59:54.694Z,1.70
2023-03-27T01:00:55.266Z,1.50
2023-03-27T01:01:55.050Z,1.60
2023-03-27T01:02:55.279Z,1.70
2023-03-27T01:03:56.545Z,1.60
2023-03-27T01:04:55.673Z,2.10
2023-03-27T01:05:55.840Z,1.90
2023-03-27T01:06:56.023Z,1.40
2023-03-27T01:08:00.672Z,1.50
2023-03-27T01:08:57.410Z,1.80
2023-03-27T01:09:56.592Z,1.50
2023-03-27T01:10:56.914Z,1.80
2023-03-27T01:11:56.996Z,1.60
2023-03-27T01:12:57.156Z,1.60
2023-03-27T01:13:57.315Z,1.70
2023-03-27T01:14:57.477Z,1.90
2023-03-27T01:15:57.667Z,1.60
2023-03-27T01:16:57.828Z,1.60
2023-03-27T01:17:58.060Z,1.80
2023-03-27T01:18:58.140Z,2.20
2023-03-27T01:19:58.406Z,1.70
2023-03-27T01:20:58.579Z,2.00
2023-03-27T01:21:58.774Z,1.90
2023-03-27T01:22:58.940Z,2.00
2023-03-27T01:24:00.750Z,1.70
2023-03-27T01:24:59.284Z,1.60
2023-03-27T01:25:59.449Z,1.70
2023-03-27T01:26:59.615Z,2.00
2023-03-27T01:27:59.779Z,1.70
2023-03-27T01:28:59.930Z,2.20
2023-03-27T01:30:00.110Z,1.80
2023-03-27T01:31:00.279Z,2.10
2023-03-27T01:32:00.418Z,1.80
2023-03-27T01:33:00.604Z,1.90
2023-03-27T01:34:00.777Z,1.70
2023-03-27T01:35:03.497Z,1.90
2023-03-27T01:36:01.207Z,1.70
2023-03-27T01:37:01.350Z,1.70
2023-03-27T01:38:01.517Z,1.80
2023-03-27T01:39:01.736Z,2.10
2023-03-27T01:40:01.872Z,1.80
2023-03-27T01:41:02.025Z,1.80
2023-03-27T01:42:02.205Z,1.80
2023-03-27T01:43:02.356Z,1.80
2023-03-27T01:44:02.533Z,1.70
2023-03-27T01:45:02.707Z,1.60
2023-03-27T01:46:02.859Z,1.80
2023-03-27T01:47:03.049Z,1.80
2023-03-27T01:48:03.286Z,1.60
2023-03-27T01:49:03.412Z,1.90
2023-03-27T01:50:03.584Z,1.60
2023-03-27T01:51:03.735Z,1.80
2023-03-27T01:52:03.906Z,1.80
2023-03-27T01:53:04.073Z,1.80
2023-03-27T01:54:04.237Z,1.80
2023-03-27T01:55:04.381Z,1.80
2023-03-27T01:56:04.548Z,1.60
2023-03-27T01:57:04.742Z,1.60
2023-03-27T01:58:04.879Z,1.80
2023-03-27T01:59:05.037Z,1.90
2023-03-27T02:00:18.760Z,1.80
2023-03-27T02:01:06.549Z,1.70
2023-03-27T02:02:05.545Z,1.50
2023-03-27T02:03:05.775Z,1.60
2023-03-27T02:04:05.913Z,1.70
2023-03-27T02:05:06.076Z,1.70
2023-03-27T02:06:06.208Z,1.80
2023-03-27T02:07:06.381Z,1.60
2023-03-27T02:08:06.568Z,1.60
2023-03-27T02:09:06.709Z,1.60
2023-03-27T02:10:06.872Z,1.90
2023-03-27T02:11:07.028Z,1.60
2023-03-27T02:12:07.230Z,1.40
2023-03-27T02:13:07.366Z,1.60
2023-03-27T02:14:07.527Z,1.60
2023-03-27T02:15:23.288Z,1.50
2023-03-27T02:16:08.877Z,1.60
2023-03-27T02:17:08.038Z,1.50
2023-03-27T02:18:08.195Z,1.80
2023-03-27T02:19:08.346Z,1.60
2023-03-27T02:20:08.524Z,1.60
2023-03-27T02:21:08.677Z,1.60
2023-03-27T02:22:08.862Z,1.50
2023-03-27T02:23:09.008Z,1.60
2023-03-27T02:24:09.202Z,1.60
2023-03-27T02:25:09.350Z,1.40
2023-03-27T02:26:09.518Z,1.50
2023-03-27T02:27:09.736Z,1.50
2023-03-27T02:28:09.927Z,1.60
2023-03-27T02:29:10.084Z,1.50
2023-03-27T02:30:10.255Z,1.60
2023-03-27T02:31:32.720Z,1.40
2023-03-27T02:32:11.790Z,1.50
2023-03-27T02:33:10.851Z,1.60
2023-03-27T02:34:10.992Z,1.50
2023-03-27T02:35:11.162Z,1.60
2023-03-27T02:36:11.402Z,1.80
2023-03-27T02:37:11.542Z,1.40
2023-03-27T02:38:11.749Z,1.50
2023-03-27T02:39:11.906Z,1.70
2023-03-27T02:40:12.059Z,1.40
2023-03-27T02:41:12.220Z,1.30
2023-03-27T02:42:12.392Z,1.40
2023-03-27T02:43:12.567Z,1.20
2023-03-27T02:44:12.721Z,1.20
2023-03-27T02:45:12.894Z,1.30
2023-03-27T02:46:13.106Z,1.40
2023-03-27T02:47:13.247Z,1.90
2023-03-27T02:48:13.438Z,1.20
2023-03-27T02:49:13.597Z,1.20
2023-03-27T02:50:13.770Z,1.50
2023-03-27T02:51:14.496Z,1.30
2023-03-27T02:52:14.115Z,1.20
2023-03-27T02:53:14.300Z,1.20
2023-03-27T02:54:14.478Z,1.20
2023-03-27T02:55:14.658Z,1.30
2023-03-27T02:56:14.844Z,1.10
2023-03-27T02:57:15.159Z,1.30
2023-03-27T02:58:15.245Z,1.10
2023-03-27T02:59:15.475Z,1.00
2023-03-27T03:00:15.645Z,1.10
2023-03-27T03:01:15.842Z,1.20
2023-03-27T03:02:16.065Z,1.10
2023-03-27T03:03:16.373Z,1.00
2023-03-27T03:04:16.401Z,1.30
2023-03-27T03:05:16.591Z,1.20
2023-03-27T03:06:16.758Z,1.10
2023-03-27T03:07:16.954Z,1.10
2023-03-27T03:08:17.142Z,0.90
2023-03-27T03:09:17.324Z,1.50
2023-03-27T03:10:17.498Z,1.00
2023-03-27T03:11:17.682Z,0.90
2023-03-27T03:12:17.881Z,0.90
2023-03-27T03:13:18.066Z,1.00
2023-03-27T03:14:18.245Z,1.10
2023-03-27T03:15:18.451Z,0.90
2023-03-27T03:16:18.674Z,1.00
2023-03-27T03:17:18.824Z,1.10
2023-03-27T03:18:19.024Z,1.00
2023-03-27T03:19:19.197Z,1.10
2023-03-27T03:20:19.370Z,0.90
2023-03-27T03:21:19.535Z,1.10
2023-03-27T03:22:20.177Z,1.00
2023-03-27T03:23:19.944Z,1.00
2023-03-27T03:24:20.119Z,1.00
2023-03-27T03:25:20.294Z,1.00
2023-03-27T03:26:20.468Z,1.00
2023-03-27T03:27:20.657Z,0.90
2023-03-27T03:28:20.842Z,1.00
2023-03-27T03:29:21.036Z,1.00
2023-03-27T03:30:21.235Z,1.00
2023-03-27T03:31:21.409Z,0.90
2023-03-27T03:32:21.619Z,1.00
2023-03-27T03:33:21.784Z,1.00
2023-03-27T03:34:21.938Z,1.00
2023-03-27T03:35:22.216Z,0.90
2023-03-27T03:36:22.366Z,1.00
2023-03-27T03:37:22.562Z,1.60
2023-03-27T03:38:22.735Z,1.10
2023-03-27T03:39:22.926Z,1.10
2023-03-27T03:40:23.094Z,1.20
2023-03-27T03:41:23.271Z,1.20
2023-03-27T03:42:24.115Z,1.10
2023-03-27T03:43:23.680Z,1.20
2023-03-27T03:44:23.861Z,1.20
2023-03-27T03:45:24.045Z,1.20
2023-03-27T03:46:24.258Z,1.00
2023-03-27T03:47:24.459Z,1.10
2023-03-27T03:48:24.624Z,1.30
2023-03-27T03:49:24.805Z,1.20
2023-03-27T03:50:24.981Z,1.30
2023-03-27T03:51:25.162Z,1.30
2023-03-27T03:52:25.337Z,1.40
2023-03-27T03:53:25.530Z,1.20
2023-03-27T03:54:25.711Z,1.30
2023-03-27T03:55:25.906Z,1.20
2023-03-27T03:56:26.060Z,1.40
2023-03-27T03:57:26.234Z,1.50
2023-03-27T03:58:34.497Z,1.40
2023-03-27T03:59:27.571Z,1.50
2023-03-27T04:00:26.773Z,1.50
2023-03-27T04:01:26.965Z,1.40
2023-03-27T04:02:27.204Z,1.20
2023-03-27T04:03:27.445Z,1.70
2023-03-27T04:04:27.518Z,1.30
2023-03-27T04:05:27.718Z,1.40
2023-03-27T04:06:27.906Z,1.30
2023-03-27T04:07:28.110Z,1.50
2023-03-27T04:08:28.322Z,1.40
2023-03-27T04:10:27.337Z,1.30
2023-03-27T04:11:27.434Z,1.30
2023-03-27T04:12:28.048Z,1.30
2023-03-27T04:13:27.715Z,1.20
2023-03-27T04:14:27.817Z,1.20
2023-03-27T04:15:27.945Z,1.30
2023-03-27T04:16:28.058Z,1.20
2023-03-27T04:17:28.255Z,1.20
2023-03-27T04:18:28.486Z,1.20
2023-03-27T04:19:28.554Z,1.20
2023-03-27T04:20:28.661Z,1.20
2023-03-27T04:21:28.789Z,1.30
2023-03-27T04:22:28.893Z,1.40
2023-03-27T04:23:29.051Z,1.20
2023-03-27T04:24:29.172Z,1.00
2023-03-27T04:25:29.331Z,1.20
2023-03-27T04:26:29.572Z,1.20
2023-03-27T04:27:29.618Z,1.50
2023-03-27T04:28:29.777Z,1.10
2023-03-27T04:29:29.928Z,1.20
2023-03-27T04:30:30.068Z,1.20
2023-03-27T04:31:30.409Z,1.00
2023-03-27T04:32:30.373Z,1.50
2023-03-27T04:33:30.896Z,1.30
2023-03-27T04:34:30.685Z,1.30
2023-03-27T04:35:30.847Z,1.10
2023-03-27T04:36:31.404Z,1.10
2023-03-27T04:37:31.252Z,1.10
2023-03-27T04:38:31.336Z,1.30
2023-03-27T04:39:31.545Z,1.30
2023-03-27T04:40:31.700Z,1.20
2023-03-27T04:41:31.844Z,1.10
2023-03-27T04:42:31.968Z,1.40
2023-03-27T04:43:32.121Z,1.00
2023-03-27T04:44:32.254Z,1.10
2023-03-27T04:45:32.419Z,1.20
2023-03-27T04:46:32.546Z,1.30
2023-03-27T04:47:32.718Z,1.20
2023-03-27T04:48:32.833Z,1.40
2023-03-27T04:49:32.966Z,1.30
2023-03-27T04:50:33.148Z,1.30
2023-03-27T04:51:33.269Z,1.30
2023-03-27T04:52:33.432Z,1.10
2023-03-27T04:53:33.558Z,1.30
2023-03-27T04:54:33.692Z,1.60
2023-03-27T04:55:33.818Z,1.40
2023-03-27T04:56:33.963Z,1.60
2023-03-27T04:57:34.097Z,1.30
2023-03-27T04:58:36.852Z,1.30
2023-03-27T04:59:34.361Z,1.30
2023-03-27T05:00:34.457Z,1.30
2023-03-27T05:01:34.611Z,1.40
2023-03-27T05:02:34.712Z,1.10
2023-03-27T05:03:35.278Z,1.20
2023-03-27T05:04:35.016Z,1.10
2023-03-27T05:05:35.186Z,1.00
2023-03-27T05:06:35.298Z,1.20
2023-03-27T05:07:35.425Z,1.40
2023-03-27T05:08:35.544Z,1.30
2023-03-27T05:09:35.648Z,1.30
2023-03-27T05:10:35.776Z,1.40
2023-03-27T05:11:35.895Z,1.40
2023-03-27T05:12:36.013Z,1.10
2023-03-27T05:13:36.168Z,1.20
2023-03-27T05:14:36.284Z,1.50
2023-03-27T05:15:36.436Z,1.40
2023-03-27T05:16:36.584Z,1.40
2023-03-27T05:17:36.742Z,1.70
2023-03-27T05:18:36.843Z,1.50
2023-03-27T05:19:37.945Z,1.40
2023-03-27T05:20:37.072Z,1.20
2023-03-27T05:21:37.201Z,1.40
2023-03-27T05:22:37.315Z,1.30
2023-03-27T05:23:37.481Z,1.60
2023-03-27T05:24:37.602Z,1.50
2023-03-27T05:25:37.720Z,2.10
2023-03-27T05:26:38.563Z,1.60
2023-03-27T05:27:37.955Z,2.00
2023-03-27T05:28:38.087Z,1.70
2023-03-27T05:29:46.987Z,1.80
2023-03-27T05:30:39.349Z,1.70
2023-03-27T05:31:38.461Z,1.80
2023-03-27T05:32:38.644Z,2.00
2023-03-27T05:33:38.770Z,1.60
2023-03-27T05:34:38.992Z,1.90
2023-03-27T05:35:39.008Z,1.90
2023-03-27T05:36:39.173Z,1.90
2023-03-27T05:37:39.310Z,1.80
2023-03-27T05:38:39.446Z,2.00
2023-03-27T05:39:39.570Z,1.80
2023-03-27T05:40:39.688Z,1.80
2023-03-27T05:41:39.829Z,1.80
2023-03-27T05:42:39.938Z,1.90
2023-03-27T05:43:40.122Z,1.90
2023-03-27T05:44:40.222Z,2.20
2023-03-27T05:45:40.336Z,2.00
2023-03-27T05:46:40.510Z,2.10
2023-03-27T05:47:40.656Z,2.20
2023-03-27T05:48:40.787Z,2.20
2023-03-27T05:49:40.912Z,2.10
2023-03-27T05:50:41.020Z,2.10
2023-03-27T05:51:47.146Z,2.00
2023-03-27T05:52:42.225Z,2.40
2023-03-27T05:53:41.324Z,2.40
2023-03-27T05:54:41.420Z,2.40
2023-03-27T05:55:41.525Z,2.00
2023-03-27T05:56:41.648Z,2.10
2023-03-27T05:57:41.705Z,2.00
2023-03-27T05:58:41.841Z,2.40
2023-03-27T05:59:41.963Z,2.40
2023-03-27T06:00:42.071Z,2.10
2023-03-27T06:01:42.138Z,2.00
2023-03-27T06:02:42.293Z,1.80
2023-03-27T06:03:42.489Z,1.80
2023-03-27T06:04:42.475Z,1.80
2023-03-27T06:05:42.543Z,1.70
2023-03-27T06:06:42.712Z,1.90
2023-03-27T06:07:43.594Z,2.10
2023-03-27T06:08:42.965Z,2.00
2023-03-27T06:09:43.129Z,1.90
2023-03-27T06:10:43.278Z,1.70
2023-03-27T06:11:43.448Z,2.00
2023-03-27T06:12:43.481Z,1.60
2023-03-27T06:13:43.615Z,1.60
2023-03-27T06:14:43.758Z,1.70
2023-03-27T06:15:43.910Z,1.70
2023-03-27T06:16:44.018Z,1.70
2023-03-27T06:17:44.186Z,1.60
2023-03-27T06:18:44.295Z,1.70
2023-03-27T06:19:48.881Z,1.70
2023-03-27T06:20:44.549Z,1.70
2023-03-27T06:21:44.783Z,1.60
2023-03-27T06:22:44.818Z,1.50
2023-03-27T06:23:44.874Z,1.60
2023-03-27T06:24:45.054Z,1.50
2023-03-27T06:25:45.096Z,1.60
2023-03-27T06:26:45.188Z,1.50
2023-03-27T06:27:45.323Z,1.60
2023-03-27T06:28:45.465Z,1.90
2023-03-27T06:29:45.452Z,1.30
2023-03-27T06:30:45.553Z,1.70
2023-03-27T06:31:45.684Z,2.00
2023-03-27T06:32:45.876Z,1.60
2023-03-27T06:33:45.924Z,1.60
2023-03-27T06:34:46.008Z,1.80
2023-03-27T06:35:53.020Z,1.60
2023-03-27T06:36:47.178Z,2.40
2023-03-27T06:37:46.758Z,2.10
2023-03-27T06:38:46.344Z,2.10
2023-03-27T06:39:46.405Z,1.90
2023-03-27T06:40:46.485Z,2.00
2023-03-27T06:41:46.560Z,1.80
2023-03-27T06:42:46.612Z,1.70
2023-03-27T06:43:46.683Z,1.70
2023-03-27T06:44:46.752Z,2.50
2023-03-27T06:45:46.826Z,2.30
2023-03-27T06:46:46.882Z,2.20
2023-03-27T06:47:53.943Z,2.10
2023-03-27T06:48:47.978Z,1.80
2023-03-27T06:49:47.023Z,1.60
2023-03-27T06:50:47.098Z,1.60
2023-03-27T06:51:47.202Z,1.50
2023-03-27T06:52:47.282Z,1.60
2023-03-27T06:53:47.341Z,1.50
2023-03-27T06:54:47.441Z,1.60
2023-03-27T06:55:47.530Z,2.10
2023-03-27T06:56:47.652Z,1.70
2023-03-27T06:57:47.725Z,1.80
2023-03-27T06:58:47.810Z,1.60
2023-03-27T06:59:47.902Z,1.60
2023-03-27T07:00:48.013Z,1.90
2023-03-27T07:01:48.162Z,1.90
2023-03-27T07:02:48.257Z,1.70
2023-03-27T07:03:48.332Z,1.90
2023-03-27T07:05:01.578Z,1.70
2023-03-27T07:05:49.571Z,1.70
2023-03-27T07:06:48.587Z,1.90
2023-03-27T07:07:49.410Z,2.00
2023-03-27T07:08:49.269Z,2.10
2023-03-27T07:09:48.866Z,2.00
2023-03-27T07:10:59.931Z,1.80
2023-03-27T07:11:50.022Z,1.80
2023-03-27T07:12:49.092Z,6.20
2023-03-27T07:13:49.180Z,8.70
2023-03-27T07:14:49.284Z,9.60
2023-03-27T07:15:49.368Z,6.20
2023-03-27T07:16:49.463Z,6.80
2023-03-27T07:17:49.713Z,5.30
2023-03-27T07:18:49.636Z,4.10
2023-03-27T07:19:49.735Z,3.40
2023-03-27T07:20:49.788Z,4.70
2023-03-27T07:21:50.155Z,2.30
2023-03-27T07:22:49.953Z,2.00
2023-03-27T07:23:49.998Z,4.70
2023-03-27T07:24:50.046Z,3.00
2023-03-27T07:25:50.343Z,5.00
2023-03-27T07:26:50.150Z,2.00
2023-03-27T07:27:50.201Z,2.60
2023-03-27T07:28:50.234Z,2.90
2023-03-27T07:29:50.275Z,6.20
2023-03-27T07:30:50.345Z,3.80
2023-03-27T07:32:50.462Z,2.70
2023-03-27T07:33:50.572Z,1.90
2023-03-27T07:34:50.635Z,1.70
2023-03-27T07:35:50.702Z,2.10
2023-03-27T07:36:50.781Z,1.70
2023-03-27T07:37:50.833Z,1.60
2023-03-27T07:38:50.846Z,1.50
2023-03-27T07:39:50.912Z,2.00
2023-03-27T07:40:50.951Z,2.50
2023-03-27T07:41:51.007Z,5.00
2023-03-27T07:42:51.046Z,4.40
2023-03-27T07:43:51.107Z,5.40
2023-03-27T07:44:51.152Z,4.10
2023-03-27T07:45:51.227Z,2.70
2023-03-27T07:46:51.220Z,2.10
2023-03-27T07:47:51.308Z,1.40
2023-03-27T07:48:51.319Z,1.80
2023-03-27T07:49:51.366Z,1.70
2023-03-27T07:50:52.909Z,1.70
2023-03-27T07:51:51.455Z,1.60
2023-03-27T07:52:51.497Z,1.70
2023-03-27T07:53:51.541Z,1.50
2023-03-27T07:54:51.616Z,1.50
2023-03-27T07:55:51.687Z,1.70
2023-03-27T07:56:51.859Z,1.40
2023-03-27T07:58:00.964Z,1.80
2023-03-27T07:58:52.962Z,2.20
2023-03-27T07:59:52.005Z,1.70
2023-03-27T08:00:52.097Z,1.70
2023-03-27T08:01:52.146Z,1.70
2023-03-27T08:02:52.314Z,1.50
2023-03-27T08:03:52.513Z,1.40
2023-03-27T08:04:52.521Z,1.40
2023-03-27T08:05:52.483Z,1.40
2023-03-27T08:06:52.558Z,1.60
2023-03-27T08:07:52.595Z,1.40
2023-03-27T08:08:52.695Z,1.50
2023-03-27T08:09:52.765Z,1.90
2023-03-27T08:10:52.825Z,1.30
2023-03-27T08:11:52.906Z,1.50
2023-03-27T08:12:52.968Z,1.20
2023-03-27T08:13:53.032Z,1.30
2023-03-27T08:14:53.114Z,1.30
2023-03-27T08:15:53.155Z,1.40
2023-03-27T08:16:55.833Z,1.40
2023-03-27T08:17:54.333Z,1.20
2023-03-27T08:18:53.357Z,1.60
2023-03-27T08:19:53.428Z,1.30
2023-03-27T08:20:53.485Z,1.20
2023-03-27T08:21:53.519Z,1.30
2023-03-27T08:22:53.578Z,1.10
2023-03-27T08:23:54.442Z,1.10
2023-03-27T08:24:53.733Z,1.10
2023-03-27T08:25:53.996Z,1.40
2023-03-27T08:26:53.889Z,1.20
2023-03-27T08:27:53.953Z,1.00
2023-03-27T08:28:54.047Z,1.20
2023-03-27T08:29:54.076Z,1.30
2023-03-27T08:30:54.187Z,1.30
2023-03-27T08:31:55.185Z,1.20
2023-03-27T08:32:54.358Z,1.30
2023-03-27T08:33:54.375Z,1.30
2023-03-27T08:34:54.416Z,1.20
2023-03-27T08:35:54.542Z,1.20
2023-03-27T08:36:54.558Z,1.20
2023-03-27T08:37:54.609Z,1.20
2023-03-27T08:38:54.723Z,1.20
2023-03-27T08:39:54.771Z,1.50
2023-03-27T08:40:54.826Z,1.30
2023-03-27T08:41:54.930Z,1.30
2023-03-27T08:42:54.995Z,1.20
2023-03-27T08:43:55.053Z,1.10
2023-03-27T08:44:55.126Z,1.20
2023-03-27T08:45:55.471Z,2.00
2023-03-27T08:46:55.374Z,1.40
2023-03-27T08:47:55.426Z,1.20
2023-03-27T08:48:55.470Z,1.30
2023-03-27T08:49:56.447Z,1.00
2023-03-27T08:50:55.618Z,1.10
2023-03-27T08:51:55.654Z,1.10
2023-03-27T08:52:55.837Z,1.30
2023-03-27T08:53:55.913Z,1.20
2023-03-27T08:54:55.982Z,1.20
2023-03-27T08:55:56.193Z,1.30
2023-03-27T08:56:56.187Z,1.40
2023-03-27T08:57:56.223Z,1.20
2023-03-27T08:58:56.293Z,0.90
2023-03-27T08:59:56.326Z,1.00
2023-03-27T09:00:56.360Z,1.10
2023-03-27T09:01:56.385Z,0.80
2023-03-27T09:02:56.490Z,1.10
2023-03-27T09:03:56.518Z,0.90
2023-03-27T09:04:56.531Z,1.00
2023-03-27T09:05:56.759Z,0.90
2023-03-27T09:06:56.649Z,1.00
2023-03-27T09:07:56.634Z,1.10
2023-03-27T09:08:56.650Z,1.00
2023-03-27T09:09:56.669Z,1.00
2023-03-27T09:10:56.682Z,1.20
2023-03-27T09:11:56.779Z,1.10
2023-03-27T09:12:56.845Z,1.00
2023-03-27T09:13:56.915Z,0.90
2023-03-27T09:14:56.918Z,1.00
2023-03-27T09:15:57.137Z,0.90
2023-03-27T09:16:57.045Z,1.10
2023-03-27T09:17:57.084Z,1.00
2023-03-27T09:18:57.099Z,1.00
2023-03-27T09:19:57.164Z,1.10
2023-03-27T09:20:57.161Z,1.00
2023-03-27T09:21:57.187Z,1.10
2023-03-27T09:22:57.231Z,1.20
2023-03-27T09:23:57.272Z,1.20
2023-03-27T09:24:57.331Z,1.10
2023-03-27T09:25:57.560Z,1.10
2023-03-27T09:27:06.812Z,1.10
2023-03-27T09:27:58.478Z,1.10
2023-03-27T09:28:57.530Z,1.30
2023-03-27T09:30:05.890Z,1.10
2023-03-27T09:30:58.607Z,1.30
2023-03-27T09:31:57.628Z,1.30
2023-03-27T09:32:57.734Z,1.30
2023-03-27T09:33:57.739Z,1.80
2023-03-27T09:34:57.865Z,1.00
2023-03-27T09:35:58.139Z,1.20
2023-03-27T09:36:57.920Z,0.90
2023-03-27T09:37:57.906Z,1.20
2023-03-27T09:38:57.936Z,0.90
2023-03-27T09:39:57.953Z,1.10
2023-03-27T09:40:57.947Z,1.40
2023-03-27T09:41:57.929Z,1.60
2023-03-27T09:42:57.927Z,1.30
2023-03-27T09:43:57.899Z,1.20
2023-03-27T09:44:57.872Z,1.00
2023-03-27T09:45:58.163Z,1.20
2023-03-27T09:46:57.859Z,1.60
2023-03-27T09:47:57.883Z,1.60
2023-03-27T09:48:57.834Z,1.20
2023-03-27T09:49:57.811Z,0.80
2023-03-27T09:50:58.003Z,0.90
2023-03-27T09:51:57.735Z,1.20
2023-03-27T09:52:57.777Z,1.10
2023-03-27T09:53:57.785Z,1.10
2023-03-27T09:54:57.756Z,1.20
2023-03-27T09:55:57.773Z,1.40
2023-03-27T09:56:57.794Z,2.00
2023-03-27T09:57:57.776Z,1.40
2023-03-27T09:58:57.767Z,1.50
2023-03-27T09:59:57.749Z,1.20
2023-03-27T10:00:57.958Z,1.30
2023-03-27T10:01:57.731Z,1.20
2023-03-27T10:02:57.737Z,1.10
2023-03-27T10:03:57.790Z,0.80
2023-03-27T10:04:57.744Z,0.90
2023-03-27T10:05:57.722Z,1.20
2023-03-27T10:06:57.707Z,1.10
2023-03-27T10:07:57.725Z,1.20
2023-03-27T10:08:57.741Z,0.90
2023-03-27T10:10:04.762Z,1.20
2023-03-27T10:10:58.042Z,1.20
2023-03-27T10:11:59.426Z,1.20
2023-03-27T10:12:59.417Z,1.20
2023-03-27T10:13:57.736Z,1.40
2023-03-27T10:14:57.766Z,1.10
2023-03-27T10:15:57.776Z,1.20
2023-03-27T10:16:57.818Z,1.10
2023-03-27T10:17:57.916Z,1.00
2023-03-27T10:18:57.891Z,1.20
2023-03-27T10:19:57.890Z,1.30
2023-03-27T10:20:58.109Z,1.10
2023-03-27T10:21:57.977Z,1.50
2023-03-27T10:22:58.003Z,1.20
2023-03-27T10:23:58.015Z,1.20
2023-03-27T10:24:58.021Z,1.10
2023-03-27T10:25:58.054Z,1.00
2023-03-27T10:26:58.096Z,0.90
2023-03-27T10:27:58.092Z,1.20
2023-03-27T10:28:58.117Z,1.00
2023-03-27T10:29:58.130Z,1.60
2023-03-27T10:30:58.421Z,1.10
2023-03-27T10:31:58.284Z,1.40
2023-03-27T10:32:58.302Z,1.20
2023-03-27T10:33:58.248Z,1.80
2023-03-27T10:34:58.369Z,1.40
2023-03-27T10:35:58.307Z,1.20
2023-03-27T10:36:58.211Z,1.30
2023-03-27T10:37:58.292Z,1.50
2023-03-27T10:38:58.266Z,1.10
2023-03-27T10:39:58.236Z,1.40
2023-03-27T10:40:58.447Z,1.70
2023-03-27T10:41:58.152Z,2.00
2023-03-27T10:42:58.115Z,1.20
2023-03-27T10:43:58.085Z,1.60
2023-03-27T10:44:58.015Z,1.00
2023-03-27T10:45:57.999Z,1.00
2023-03-27T10:46:57.980Z,0.90
2023-03-27T10:47:57.974Z,0.90
2023-03-27T10:48:57.876Z,1.10
2023-03-27T10:49:57.830Z,1.20
2023-03-27T10:50:58.123Z,0.90
2023-03-27T10:51:57.757Z,0.90
2023-03-27T10:52:57.792Z,1.00
2023-03-27T10:53:57.837Z,1.30
2023-03-27T10:54:57.704Z,1.50
2023-03-27T10:55:57.669Z,1.40
2023-03-27T10:56:57.698Z,0.90
2023-03-27T10:57:57.641Z,1.10
2023-03-27T10:58:57.600Z,1.20
2023-03-27T10:59:57.558Z,1.10
2023-03-27T11:00:57.703Z,1.50
2023-03-27T11:01:57.586Z,1.10
2023-03-27T11:02:57.676Z,1.00
2023-03-27T11:03:57.601Z,1.00
2023-03-27T11:04:57.554Z,1.00
2023-03-27T11:05:57.543Z,1.10
2023-03-27T11:06:57.506Z,1.00
2023-03-27T11:07:57.508Z,0.80
2023-03-27T11:08:57.501Z,1.00
2023-03-27T11:09:57.482Z,0.90
2023-03-27T11:10:57.684Z,1.30
2023-03-27T11:11:57.500Z,1.00
2023-03-27T11:12:57.495Z,1.20
2023-03-27T11:13:57.526Z,1.30
2023-03-27T11:14:57.507Z,1.00
2023-03-27T11:15:57.482Z,0.80
2023-03-27T11:16:57.483Z,0.80
2023-03-27T11:17:57.511Z,0.70
2023-03-27T11:18:57.439Z,0.90
2023-03-27T11:19:57.414Z,1.00
2023-03-27T11:20:57.583Z,1.40
2023-03-27T11:21:57.435Z,1.00
2023-03-27T11:22:57.399Z,1.30
2023-03-27T11:23:57.411Z,1.10
2023-03-27T11:24:57.314Z,1.10
2023-03-27T11:25:57.283Z,1.30
2023-03-27T11:26:57.236Z,1.40
2023-03-27T11:27:57.190Z,1.50
2023-03-27T11:28:57.139Z,1.40
2023-03-27T11:29:57.127Z,1.20
2023-03-27T11:30:57.388Z,1.30
2023-03-27T11:31:57.210Z,1.10
2023-03-27T11:32:57.134Z,1.70
2023-03-27T11:33:57.117Z,1.20
2023-03-27T11:34:57.081Z,1.40
2023-03-27T11:35:57.138Z,1.50
2023-03-27T11:36:57.090Z,1.20
2023-03-27T11:37:57.071Z,1.00
2023-03-27T11:38:57.011Z,0.90
2023-03-27T11:39:57.023Z,1.00
2023-03-27T11:40:57.194Z,1.10
2023-03-27T11:41:56.971Z,1.30
2023-03-27T11:42:56.935Z,1.10
2023-03-27T11:43:56.901Z,1.10
2023-03-27T11:44:56.877Z,1.30
2023-03-27T11:45:56.850Z,1.10
2023-03-27T11:46:56.784Z,1.20
2023-03-27T11:47:56.795Z,1.20
2023-03-27T11:48:56.697Z,1.20
2023-03-27T11:49:56.688Z,1.10
2023-03-27T11:50:56.921Z,1.10
2023-03-27T11:51:56.591Z,0.90
2023-03-27T11:52:56.536Z,0.90
2023-03-27T11:53:56.510Z,1.30
2023-03-27T11:54:56.430Z,1.00
2023-03-27T11:55:56.355Z,1.40
2023-03-27T11:56:56.381Z,1.10
2023-03-27T11:57:56.313Z,1.10
2023-03-27T11:58:56.258Z,1.20
2023-03-27T11:59:56.239Z,1.10
2023-03-27T12:00:56.309Z,1.00
2023-03-27T12:01:56.181Z,1.10
2023-03-27T12:02:56.219Z,1.30
2023-03-27T12:03:56.164Z,1.00
2023-03-27T12:04:55.964Z,1.00
2023-03-27T12:05:55.899Z,1.00
2023-03-27T12:06:57.043Z,1.00
2023-03-27T12:07:56.173Z,1.00
2023-03-27T12:08:55.777Z,1.00
2023-03-27T12:09:55.700Z,0.90
2023-03-27T12:10:55.936Z,1.10
2023-03-27T12:11:55.650Z,1.30
2023-03-27T12:12:55.615Z,1.30
2023-03-27T12:14:01.861Z,1.20
2023-03-27T12:14:56.534Z,1.10
2023-03-27T12:15:55.501Z,1.10
2023-03-27T12:16:55.531Z,1.50
2023-03-27T12:17:55.571Z,1.10
2023-03-27T12:19:03.981Z,1.20
2023-03-27T12:19:56.668Z,1.30
2023-03-27T12:20:55.682Z,1.10
2023-03-27T12:21:55.697Z,1.20
2023-03-27T12:22:55.695Z,1.00
2023-03-27T12:23:55.672Z,1.10
2023-03-27T12:24:59.699Z,1.10
2023-03-27T12:25:55.682Z,1.10
2023-03-27T12:26:55.668Z,1.40
2023-03-27T12:27:55.766Z,1.20
2023-03-27T12:28:55.744Z,1.30
2023-03-27T12:29:55.828Z,1.70
2023-03-27T12:30:55.983Z,1.20
2023-03-27T12:31:55.886Z,1.30
2023-03-27T12:32:57.195Z,1.20
2023-03-27T12:33:55.822Z,1.10
2023-03-27T12:34:55.781Z,1.10
2023-03-27T12:35:55.773Z,0.90
2023-03-27T12:36:55.711Z,1.40
2023-03-27T12:37:55.673Z,1.40
2023-03-27T12:38:55.617Z,1.60
2023-03-27T12:39:55.570Z,1.50
2023-03-27T12:40:55.683Z,1.00
2023-03-27T12:41:55.519Z,1.10
2023-03-27T12:42:55.463Z,1.50
2023-03-27T12:43:55.431Z,2.70
2023-03-27T12:44:55.371Z,2.50
2023-03-27T12:45:55.400Z,1.60
2023-03-27T12:46:55.280Z,1.30
2023-03-27T12:47:55.264Z,1.00
2023-03-27T12:48:55.191Z,1.40
2023-03-27T12:49:55.130Z,1.90
2023-03-27T12:50:55.372Z,2.20
2023-03-27T12:51:55.005Z,1.30
2023-03-27T12:52:54.938Z,1.30
2023-03-27T12:53:54.895Z,1.00
2023-03-27T12:54:54.818Z,1.20
2023-03-27T12:55:54.964Z,1.00
2023-03-27T12:56:54.797Z,0.80
2023-03-27T12:57:54.980Z,0.70
2023-03-27T12:58:54.745Z,0.80
2023-03-27T12:59:54.703Z,1.20
2023-03-27T13:00:54.702Z,0.90
2023-03-27T13:01:54.696Z,1.20
2023-03-27T13:02:54.738Z,1.00
2023-03-27T13:03:54.798Z,1.00
2023-03-27T13:04:54.683Z,1.10
2023-03-27T13:05:54.682Z,1.00
2023-03-27T13:06:54.664Z,1.00
2023-03-27T13:07:54.845Z,0.90
2023-03-27T13:08:54.639Z,1.00
2023-03-27T13:09:54.654Z,0.90
2023-03-27T13:10:54.766Z,0.70
2023-03-27T13:11:54.709Z,1.00
2023-03-27T13:12:54.726Z,0.70
2023-03-27T13:13:54.811Z,1.00
2023-03-27T13:14:54.844Z,0.70
2023-03-27T13:15:55.026Z,0.80
2023-03-27T13:16:54.895Z,1.00
2023-03-27T13:17:54.961Z,0.80
2023-03-27T13:18:54.945Z,0.90
2023-03-27T13:19:54.961Z,0.70
2023-03-27T13:20:54.931Z,0.80
2023-03-27T13:21:54.930Z,0.90